Latest Coastal Weather Observations for Learmonth

IDW60701

Issued at 12:03 pm WST Monday 27 June 2016 (issued every 10 minutes, with the page automatically refreshed every 10 minutes)

About coastal observations | Map of coastal stations | Coastal observations for WA | Marine services | Other Formats
Station Details ID: 005007 Name: LEARMONTH AIRPORT Lat: -22.24 Lon: 114.10 Height: 5.0 m
Data from the previous 72 hours. | See also: Recent months at Learmonth
Date/Time
WST
Temp
°C
Wind Pressure Rain since
9am
mm
Weather Cloud Vis
km
Sea
Height
m
Swell
Dir  Spd
kts
Gust
kts
hPa Trend Height
m
Period
s
Dir
27/12:00pm 20.5 NE 14 18 1017.4 - 0.0 - Mostly clear 10 - - - -
27/11:30am 19.8 NE 14 19 1017.7 - 0.0 - Mostly clear 10 - - - -
27/11:00am 18.8 NE 16 21 1018.0 - 0.0 - Mostly clear 10 - - - -
27/10:30am 18.5 NE 17 22 1018.5 - 0.0 - Cloudy 10 - - - -
27/10:00am 18.9 NE 17 23 1018.5 - 0.0 - Partly cloudy 10 - - - -
27/09:30am 18.0 NE 17 23 1018.7 - 0.0 - Partly cloudy 10 - - - -
27/09:00am 17.5 NE 17 23 1018.5 - 0.0 - Mostly cloudy 10 - - - -
27/08:30am 16.8 NE 14 17 1018.6 - 0.0 - Mostly clear 10 - - - -
27/08:00am 14.2 ENE 3 10 1018.3 - 0.0 - - 10 - - - -
27/07:30am 10.0 SW 5 7 1017.9 - 0.0 - - 10 - - - -
27/07:00am 8.3 SW 4 5 1017.8 - 0.0 - - 10 - - - -
27/06:30am 8.3 WSW 5 5 1017.4 - 0.0 - - 10 - - - -
27/06:00am 8.3 WSW 3 4 1017.1 - 0.0 - - 10 - - - -
27/05:30am 8.8 SW 4 5 1017.3 - 0.0 - - 10 - - - -
27/05:00am 9.1 WSW 5 6 1017.2 - 0.0 - - 10 - - - -
27/04:30am 8.9 W 4 5 1016.9 - 0.0 - - 10 - - - -
27/04:00am 8.9 SW 5 6 1016.9 - 0.0 - - 10 - - - -
27/03:30am 10.4 WNW 4 6 1017.0 - 0.0 - - 10 - - - -
27/03:00am 10.9 WNW 5 6 1017.3 - 0.0 - - 10 - - - -
27/02:30am 10.3 W 5 7 1017.7 - 0.0 - - 10 - - - -
27/02:00am 9.7 SW 7 8 1017.9 - 0.0 - - 10 - - - -
27/01:30am 9.8 SW 5 6 1018.1 - 0.0 - - 10 - - - -
27/01:00am 9.7 SSW 5 5 1018.2 - 0.0 - - 10 - - - -
27/12:30am 9.7 SSW 6 7 1018.3 - 0.0 - - 10 - - - -
27/12:00am 9.7 SSW 7 7 1018.2 - 0.0 - - 10 - - - -
 
Date/Time
WST
Temp
°C
Wind Pressure Rain since
9am
mm
Weather Cloud Vis
km
Sea
Height
m
Swell
Dir  Spd
kts
Gust
kts
hPa Trend Height
m
Period
s
Dir
26/11:30pm 10.2 SSW 6 8 1018.4 - 0.0 - - 10 - - - -
26/11:00pm 11.6 WSW 5 6 1018.7 - 0.0 - - 10 - - - -
26/10:30pm 11.7 WSW 7 7 1018.8 - 0.0 - - 10 - - - -
26/10:00pm 12.6 WSW 6 7 1018.8 - 0.0 - - 10 - - - -
26/09:30pm 12.3 SW 6 7 1018.7 - 0.0 - - 10 - - - -
26/09:00pm 12.1 SSW 6 8 1018.4 - 0.0 - - 10 - - - -
26/08:30pm 14.9 SE 4 5 1018.4 - 0.0 - - 10 - - - -
26/08:00pm 13.9 SSE 5 7 1018.3 - 0.0 - - 10 - - - -
26/07:30pm 14.0 SSE 5 6 1018.1 - 0.0 - - 10 - - - -
26/07:00pm 14.8 SSE 5 6 1017.7 - 0.0 - - 10 - - - -
26/06:30pm 16.6 S 4 6 1017.5 - 0.0 - - 10 - - - -
26/06:00pm 18.5 ESE 5 9 1017.3 - 0.0 - - 10 - - - -
26/05:30pm 20.5 E 3 4 1017.3 - 0.0 - - 10 - - - -
26/05:00pm 21.2 E 5 8 1017.1 - 0.0 - - 10 - - - -
26/04:30pm 21.7 E 5 7 1017.1 - 0.0 - - 10 - - - -
26/04:00pm 21.8 E 6 9 1017.3 - 0.0 - - 10 - - - -
26/03:30pm 22.0 E 7 10 1017.5 - 0.0 - - 10 - - - -
26/03:00pm 21.9 E 7 10 1017.6 - 0.0 - - 10 - - - -
26/02:30pm 21.9 ESE 9 12 1017.9 - 0.0 - - 10 - - - -
26/02:00pm 21.4 E 10 13 1018.1 - 0.0 - - 10 - - - -
26/01:30pm 21.3 ESE 11 14 1018.5 - 0.0 - - 10 - - - -
26/01:00pm 21.3 SE 13 16 1019.0 - 0.0 - - 10 - - - -
26/12:30pm 20.8 ESE 13 16 1019.4 - 0.0 - - 10 - - - -
26/12:00pm 20.3 SE 13 17 1020.0 - 0.0 - - 10 - - - -
26/11:30am 19.7 SE 15 18 1020.4 - 0.0 - - 10 - - - -
26/11:00am 19.5 SE 17 21 1020.8 - 0.0 - - 10 - - - -
26/10:30am 19.1 SE 15 20 1021.1 - 0.0 - - 10 - - - -
26/10:00am 18.7 SE 15 18 1021.0 - 0.0 - - 10 - - - -
26/09:30am 17.6 SSE 15 18 1020.8 - 0.0 - - 10 - - - -
26/09:00am 16.2 SSE 9 12 1020.8 - 0.2 - - 10 - - - -
26/08:30am 13.7 S 7 9 1020.7 - 0.2 - - 10 - - - -
26/08:00am 11.1 S 8 10 1020.8 - 0.2 - - 10 - - - -
26/07:30am 10.0 S 9 11 1020.5 - 0.2 - - 10 - - - -
26/07:00am 8.7 SSW 9 10 1020.1 - 0.2 - - 10 - - - -
26/06:30am 8.3 S 9 10 1019.8 - 0.2 - - 10 - - - -
26/06:00am 8.1 S 8 9 1019.4 - 0.2 - - 10 - - - -
26/05:30am 8.3 S 8 9 1019.0 - 0.2 - - 10 - - - -
26/05:00am 8.1 SSW 8 9 1018.9 - 0.2 - - 10 - - - -
26/04:30am 8.4 SSW 7 8 1019.0 - 0.2 - - 10 - - - -
26/04:00am 8.9 SSW 8 9 1018.9 - 0.2 - - 10 - - - -
26/03:30am 9.5 SW 8 9 1019.1 - 0.2 - - 10 - - - -
26/03:00am 9.5 SSW 8 9 1018.9 - 0.2 - - 10 - - - -
26/02:30am 9.8 SSW 8 10 1019.1 - 0.2 - - 10 - - - -
26/02:00am 9.4 SW 7 8 1019.2 - 0.2 - - 10 - - - -
26/01:30am 9.5 SSW 8 9 1019.4 - 0.2 - - 10 - - - -
26/01:00am 10.2 SSW 9 10 1019.5 - 0.2 - - 10 - - - -
26/12:30am 10.3 SW 9 10 1019.4 - 0.2 - - 10 - - - -
26/12:00am 10.9 SW 8 9 1019.5 - 0.2 - - 10 - - - -
 
Date/Time
WST
Temp
°C
Wind Pressure Rain since
9am
mm
Weather Cloud Vis
km
Sea
Height
m
Swell
Dir  Spd
kts
Gust
kts
hPa Trend Height
m
Period
s
Dir
25/11:30pm 10.7 SW 10 11 1019.5 - 0.2 - - 10 - - - -
25/11:00pm 10.3 SSW 7 9 1019.5 - 0.2 - - 10 - - - -
25/10:30pm 11.1 S 9 10 1019.2 - 0.2 - - 10 - - - -
25/10:00pm 11.5 S 8 9 1019.1 - 0.2 - - 10 - - - -
25/09:30pm 11.6 S 7 9 1019.1 - 0.2 - - 10 - - - -
25/09:00pm 12.1 S 7 8 1018.9 - 0.2 - - 10 - - - -
25/08:30pm 13.0 SSW 9 11 1018.6 - 0.2 - - 10 - - - -
25/08:00pm 14.1 SSW 11 12 1018.2 - 0.2 - - 10 - - - -
25/07:30pm 14.3 SSW 11 12 1017.8 - 0.2 - - 10 - - - -
25/07:00pm 14.1 SSW 10 11 1017.6 - 0.2 - - 10 - - - -
25/06:30pm 15.0 SSW 10 11 1017.4 - 0.2 - - 10 - - - -
25/06:00pm 17.6 S 9 10 1017.0 - 0.2 - - 10 - - - -
25/05:30pm 20.6 S 12 15 1016.9 - 0.2 - - 10 - - - -
25/05:00pm 22.1 S 12 17 1016.6 - 0.2 - - 10 - - - -
25/04:30pm 22.7 S 15 21 1016.3 - 0.2 - - 10 - - - -
25/04:00pm 23.2 S 15 22 1016.2 - 0.2 - - 10 - - - -
25/03:30pm 23.3 S 15 21 1016.1 - 0.2 - - 10 - - - -
25/03:00pm 23.2 S 15 19 1015.9 - 0.2 - - 10 - - - -
25/02:30pm 23.1 S 17 23 1015.9 - 0.2 - - 10 - - - -
25/02:00pm 23.3 SSE 17 24 1016.0 - 0.2 - - 10 - - - -
25/01:30pm 22.8 S 17 23 1016.4 - 0.2 - - 10 - - - -
25/01:03pm 22.2 SSE 16 26 1016.9 - 0.2 - - 10 - - - -
25/01:00pm 22.5 SSE 17 26 1016.8 - 0.2 - - 10 - - - -
25/12:54pm 22.3 S 16 26 1016.9 - 0.0 - - 10 - - - -
25/12:30pm 22.6 S 15 22 1017.4 - 0.0 - - 10 - - - -
25/12:00pm 21.7 S 17 23 1017.7 - 0.0 - - 10 - - - -
25/11:30am 21.4 S 18 23 1018.0 - 0.0 - - 10 - - - -
25/11:00am 21.2 S 18 25 1018.1 - 0.0 - - 10 - - - -
25/10:30am 21.0 S 18 24 1018.3 - 0.0 - - 10 - - - -
25/10:00am 20.7 S 18 23 1018.5 - 0.0 - - 10 - - - -
25/09:30am 19.9 S 15 21 1018.4 - 0.0 - - 10 - - - -
25/09:00am 18.5 S 12 19 1018.1 - 0.2 - - 10 - - - -
25/08:30am 16.5 SSW 11 13 1017.7 - 0.2 - - 10 - - - -
25/08:00am 15.2 SSW 10 13 1017.3 - 0.2 - - 10 - - - -
25/07:30am 14.0 SSW 10 13 1017.0 - 0.2 - - 10 - - - -
25/07:00am 14.2 SSW 11 13 1016.8 - 0.2 - - 10 - - - -
25/06:30am 14.5 SSW 11 14 1016.5 - 0.2 - Partly cloudy 10 - - - -
25/06:00am 15.2 SW 10 13 1016.1 - 0.2 - Partly cloudy 10 - - - -
25/05:30am 15.3 SSW 11 14 1015.8 - 0.2 - Partly cloudy 10 - - - -
25/05:00am 15.8 SSW 10 13 1015.6 - 0.2 - Cloudy 10 - - - -
25/04:30am 15.8 SSW 7 9 1015.5 - 0.2 - Partly cloudy 10 - - - -
25/04:00am 15.6 SSW 7 9 1015.3 - 0.2 - Partly cloudy 10 - - - -
25/03:30am 15.7 SSW 6 7 1015.4 - 0.2 - Partly cloudy 10 - - - -
25/03:00am 15.9 SSW 9 10 1015.4 - 0.2 - Mostly cloudy 10 - - - -
25/02:30am 16.2 SSW 9 11 1015.6 - 0.2 - Partly cloudy 10 - - - -
25/02:00am 16.7 SSW 12 17 1015.5 - 0.2 - Partly cloudy 10 - - - -
25/01:30am 17.2 SSW 10 13 1015.5 - 0.2 - Cloudy 10 - - - -
25/01:00am 16.8 SSW 4 5 1015.5 - 0.2 - Cloudy 10 - - - -
25/12:30am 16.9 S 4 5 1015.8 - 0.2 - Partly cloudy 10 - - - -
25/12:00am 16.9 SSE 4 5 1015.6 - 0.2 - Cloudy 10 - - - -
 
Date/Time
WST
Temp
°C
Wind Pressure Rain since
9am
mm
Weather Cloud Vis
km
Sea
Height
m
Swell
Dir  Spd
kts
Gust
kts
hPa Trend Height
m
Period
s
Dir
24/11:30pm 17.0 S 3 4 1015.7 - 0.2 - Cloudy 10 - - - -
24/11:00pm 17.0 S 4 5 1015.5 - 0.2 - Partly cloudy 10 - - - -
24/10:30pm 17.1 S 4 5 1015.6 - 0.2 - Partly cloudy 10 - - - -
24/10:00pm 17.2 S 3 4 1015.4 - 0.2 - Partly cloudy 10 - - - -
24/09:30pm 17.2 S 4 7 1015.2 - 0.2 - Cloudy 10 - - - -
24/09:00pm 17.2 SSW 6 7 1015.5 - 0.2 - Mostly cloudy 10 - - - -
24/08:30pm 17.2 SSW 8 12 1015.4 - 0.2 - Cloudy 10 - - - -
24/08:00pm 17.7 SSW 12 15 1015.2 - 0.2 - Partly cloudy 10 - - - -
24/07:30pm 19.4 SSW 7 9 1014.6 - 0.2 - Cloudy 10 - - - -
24/07:00pm 19.7 SSW 7 9 1014.3 - 0.2 - Cloudy 10 - - - -
24/06:30pm 19.8 SW 10 12 1014.2 - 0.2 - Partly cloudy 10 - - - -
24/06:00pm 20.3 SW 11 14 1013.9 - 0.2 - Cloudy 10 - - - -
24/05:30pm 19.8 CALM 0 0 1013.5 - 0.2 - Partly cloudy 10 - - - -
24/05:00pm 19.5 N 1 3 1013.4 - 0.2 - Partly cloudy 10 - - - -
24/04:30pm 19.7 NNE 3 5 1013.0 - 0.0 - Cloudy 10 - - - -
24/04:00pm 19.8 NNE 5 6 1012.6 - 0.0 - Cloudy 10 - - - -
24/03:30pm 20.0 NNE 3 4 1012.5 - 0.0 - Cloudy 10 - - - -
24/03:00pm 20.1 CALM 0 1 1012.5 - 0.0 - Cloudy 10 - - - -
24/02:30pm 20.0 ENE 2 4 1012.7 - 0.0 - Partly cloudy 10 - - - -
24/02:00pm 19.8 NNE 4 5 1012.7 - 0.0 - Cloudy 10 - - - -
24/01:30pm 19.4 NE 5 6 1013.1 - 0.0 - Partly cloudy 10 - - - -
24/01:00pm 19.6 ENE 3 5 1013.6 - 0.0 - Cloudy 10 - - - -
24/12:30pm 19.8 ESE 3 4 1013.9 - 0.0 - Partly cloudy 10 - - - -

Other Formats:

Comma delimited format used in spreadsheet applications
http://www.bom.gov.au/fwo/IDW60701/IDW60701.94302.axf

JavaScript Object Notation format (JSON) in row-major order
http://www.bom.gov.au/fwo/IDW60701/IDW60701.94302.json